Time;durP1;ratioP1;P1;durP2;ratioP2;P2;SDS_P1;SDS_P2;PMS_P1;PMS_P2;Temp;Humidity;BMP_temperature;BMP_pressure;BME280_temperature;BME280_humidity;BME280_pressure;Samples;Min_cycle;Max_cycle;Signal;HPM_P1;HPM_P2
2022/01/04 00:00:12;;;;;;;5.03;1.13;;;8.00;92.60;;;;;;4952030;28;20107;-72
2022/01/04 00:02:41;;;;;;;5.00;0.90;;;8.00;92.60;;;;;;4951436;28;20108;-73
2022/01/04 00:05:08;;;;;;;2.47;1.08;;;8.00;92.60;;;;;;4948648;28;20043;-73
2022/01/04 00:07:34;;;;;;;3.97;0.90;;;8.00;92.60;;;;;;4957849;28;20503;-73
2022/01/04 00:10:00;;;;;;;3.72;1.05;;;8.00;92.70;;;;;;4954979;28;20050;-73
2022/01/04 00:15:11;;;;;;;2.97;0.88;;;8.10;92.60;;;;;;4956787;28;20070;-73
2022/01/04 00:17:37;;;;;;;3.42;0.75;;;8.10;92.50;;;;;;4949359;28;20071;-73
2022/01/04 00:20:05;;;;;;;4.30;1.00;;;8.10;92.40;;;;;;4956301;28;20116;-72
2022/01/04 00:22:31;;;;;;;4.93;1.15;;;8.00;92.40;;;;;;4958249;28;20491;-72
2022/01/04 00:24:56;;;;;;;5.03;1.02;;;8.00;92.20;;;;;;4954995;28;20125;-72
2022/01/04 00:27:22;;;;;;;4.78;0.90;;;8.00;92.50;;;;;;4949547;28;20075;-73
2022/01/04 00:29:48;;;;;;;3.88;1.27;;;8.00;92.30;;;;;;4944368;28;20738;-72
2022/01/04 00:32:14;;;;;;;7.22;0.88;;;8.00;92.40;;;;;;4931023;28;20047;-73
2022/01/04 00:34:41;;;;;;;4.47;1.45;;;8.00;92.30;;;;;;4957071;28;20598;-72
2022/01/04 00:37:07;;;;;;;3.17;0.82;;;8.00;92.40;;;;;;4956870;28;20035;-72
2022/01/04 00:39:33;;;;;;;3.88;1.08;;;8.00;92.30;;;;;;4953117;28;20861;-72
2022/01/04 00:41:59;;;;;;;0.93;0.73;;;8.00;92.40;;;;;;4934179;28;20073;-72
2022/01/04 00:44:26;;;;;;;3.17;1.02;;;8.10;92.40;;;;;;4956802;28;20045;-72
2022/01/04 00:46:51;;;;;;;2.85;0.90;;;8.10;92.30;;;;;;4949817;28;20137;-72
2022/01/04 00:49:17;;;;;;;5.18;1.00;;;8.10;92.40;;;;;;4953166;28;20047;-72
2022/01/04 00:51:49;;;;;;;2.10;0.68;;;8.20;92.20;;;;;;4962237;28;20093;-72
2022/01/04 00:54:16;;;;;;;3.58;1.05;;;8.20;92.20;;;;;;4950328;28;20820;-72
2022/01/04 00:56:43;;;;;;;5.07;1.25;;;8.20;92.00;;;;;;4951985;28;20078;-72
2022/01/04 00:59:09;;;;;;;2.20;0.50;;;8.20;92.10;;;;;;4951193;28;20038;-72
2022/01/04 01:01:37;;;;;;;3.05;0.90;;;8.20;92.00;;;;;;4956475;28;20046;-72
2022/01/04 01:04:05;;;;;;;2.28;0.85;;;8.20;92.10;;;;;;4960969;28;20118;-73
2022/01/04 01:06:31;;;;;;;3.40;0.70;;;8.20;92.10;;;;;;4958569;28;20079;-73
2022/01/04 01:08:57;;;;;;;2.33;0.60;;;8.20;92.00;;;;;;4952348;28;20035;-74
2022/01/04 01:11:23;;;;;;;4.40;0.68;;;8.20;92.00;;;;;;4956208;28;20454;-72
2022/01/04 01:13:49;;;;;;;2.28;0.82;;;8.20;92.00;;;;;;4958151;28;20090;-73
2022/01/04 01:16:15;;;;;;;3.50;0.88;;;8.30;92.00;;;;;;4957141;28;20142;-73
2022/01/04 01:18:41;;;;;;;5.22;0.70;;;8.20;91.90;;;;;;4958955;28;20030;-73
2022/01/04 01:21:08;;;;;;;1.58;0.80;;;8.20;92.00;;;;;;4956580;28;20031;-73
2022/01/04 01:23:35;;;;;;;2.22;0.63;;;8.20;92.10;;;;;;4954014;28;20035;-73
2022/01/04 01:26:03;;;;;;;1.58;0.40;;;8.20;92.00;;;;;;4957449;28;20038;-73
2022/01/04 01:28:30;;;;;;;2.17;0.60;;;8.20;92.00;;;;;;4954004;28;20035;-73
2022/01/04 01:30:55;;;;;;;2.83;0.68;;;8.20;92.00;;;;;;4960853;28;20038;-73
2022/01/04 01:33:24;;;;;;;3.65;0.90;;;8.20;92.00;;;;;;4958078;28;20035;-73
2022/01/04 01:35:50;;;;;;;4.65;0.93;;;8.20;92.00;;;;;;4956194;28;20035;-72
2022/01/04 01:38:17;;;;;;;3.20;0.77;;;8.30;91.90;;;;;;4953700;28;20130;-72
2022/01/04 01:40:43;;;;;;;1.65;0.63;;;8.20;91.80;;;;;;4958979;28;20141;-72
2022/01/04 01:43:09;;;;;;;1.40;0.60;;;8.20;91.80;;;;;;4958170;28;20035;-73
2022/01/04 01:45:36;;;;;;;2.28;0.60;;;8.20;91.80;;;;;;4959793;28;20062;-73
2022/01/04 01:48:02;;;;;;;0.75;0.60;;;8.20;91.90;;;;;;4960702;28;20502;-73
2022/01/04 01:50:28;;;;;;;1.42;0.77;;;8.20;92.00;;;;;;4953880;28;20027;-74
2022/01/04 01:52:55;;;;;;;1.52;0.63;;;8.20;92.00;;;;;;4954993;28;20108;-73
2022/01/04 01:55:22;;;;;;;1.85;0.55;;;8.20;92.00;;;;;;4957455;28;20046;-73
2022/01/04 01:57:49;;;;;;;1.90;0.70;;;8.20;92.10;;;;;;4960067;28;20027;-72
2022/01/04 02:00:18;;;;;;;1.95;0.60;;;8.20;92.10;;;;;;4957332;28;20783;-73
2022/01/04 02:02:44;;;;;;;0.73;0.57;;;8.10;92.20;;;;;;4960597;28;20490;-73
2022/01/04 02:05:09;;;;;;;2.78;0.60;;;8.10;92.30;;;;;;4952502;28;20039;-73
2022/01/04 02:07:37;;;;;;;0.60;0.45;;;8.10;92.20;;;;;;4958329;28;20062;-72
2022/01/04 02:10:05;;;;;;;4.28;0.60;;;8.10;92.10;;;;;;4952907;28;20050;-72
2022/01/04 02:12:33;;;;;;;2.35;0.90;;;8.10;92.20;;;;;;4960728;28;20046;-73
2022/01/04 02:14:59;;;;;;;3.85;0.70;;;8.10;92.30;;;;;;4960207;28;20106;-72
2022/01/04 02:17:25;;;;;;;5.30;0.93;;;8.10;92.30;;;;;;4958519;28;20031;-72
2022/01/04 02:19:58;;;;;;;7.47;0.80;;;8.10;92.20;;;;;;4951884;28;20094;-72
2022/01/04 02:22:25;;;;;;;2.05;0.50;;;8.10;92.20;;;;;;4959413;28;20039;-72
2022/01/04 02:24:51;;;;;;;2.53;0.60;;;8.10;92.30;;;;;;4965106;28;20035;-72
2022/01/04 02:27:17;;;;;;;2.05;0.70;;;8.10;92.40;;;;;;4957835;28;20035;-72
2022/01/04 02:29:44;;;;;;;2.95;0.70;;;8.20;92.40;;;;;;4957957;28;20034;-72
2022/01/04 02:32:10;;;;;;;0.95;0.50;;;8.20;92.20;;;;;;4955387;28;20566;-71
2022/01/04 02:34:36;;;;;;;0.43;0.30;;;8.20;92.20;;;;;;4951228;28;20558;-73
2022/01/04 02:37:02;;;;;;;1.23;0.60;;;8.30;92.30;;;;;;4957323;28;20043;-72
2022/01/04 02:39:28;;;;;;;1.95;0.55;;;8.30;92.30;;;;;;4958722;28;20033;-73
2022/01/04 02:41:53;;;;;;;2.05;0.40;;;8.30;92.30;;;;;;4946372;28;20201;-72
2022/01/04 02:44:19;;;;;;;0.77;0.50;;;8.30;92.30;;;;;;4958632;28;20486;-72
2022/01/04 02:46:45;;;;;;;1.35;0.47;;;8.30;92.30;;;;;;4962642;28;20030;-72
2022/01/04 02:49:10;;;;;;;1.50;0.52;;;8.30;92.30;;;;;;4950750;28;20498;-72
2022/01/04 02:51:36;;;;;;;1.35;0.85;;;8.30;92.30;;;;;;4957813;28;20172;-71
2022/01/04 02:54:02;;;;;;;2.17;0.60;;;8.20;92.40;;;;;;4959355;28;20065;-73
2022/01/04 02:56:27;;;;;;;1.70;0.50;;;8.30;92.50;;;;;;4956001;28;20042;-72
2022/01/04 02:58:53;;;;;;;2.42;0.55;;;8.30;92.50;;;;;;4957692;28;20041;-73
2022/01/04 03:01:19;;;;;;;1.33;0.70;;;8.30;92.50;;;;;;4935474;28;20043;-71
2022/01/04 03:03:45;;;;;;;2.58;0.63;;;8.30;92.60;;;;;;4952885;28;20550;-72
2022/01/04 03:06:14;;;;;;;3.15;0.80;;;8.30;92.60;;;;;;4955473;28;20033;-71
2022/01/04 03:08:40;;;;;;;1.50;0.98;;;8.30;92.60;;;;;;4964660;28;20153;-71
2022/01/04 03:11:05;;;;;;;1.38;0.70;;;8.30;92.60;;;;;;4956923;28;20562;-71
2022/01/04 03:13:31;;;;;;;0.55;0.40;;;8.30;92.60;;;;;;4957742;28;20027;-72
2022/01/04 03:15:57;;;;;;;1.52;0.50;;;8.30;92.70;;;;;;4950920;28;20395;-72
2022/01/04 03:18:22;;;;;;;0.75;0.65;;;8.30;92.70;;;;;;4954706;28;20046;-71
2022/01/04 03:20:48;;;;;;;2.35;0.70;;;8.30;92.80;;;;;;4960625;28;20026;-72
2022/01/04 03:23:14;;;;;;;1.27;0.75;;;8.30;92.90;;;;;;4957828;28;20511;-72
2022/01/04 03:25:40;;;;;;;1.13;0.45;;;8.30;92.90;;;;;;4956161;28;20039;-72
2022/01/04 03:28:06;;;;;;;1.92;0.63;;;8.30;92.90;;;;;;4955204;28;20043;-72
2022/01/04 03:30:34;;;;;;;1.77;0.60;;;8.30;92.80;;;;;;4950852;28;20043;-72
2022/01/04 03:33:00;;;;;;;1.27;0.68;;;8.30;92.90;;;;;;4955446;28;20035;-72
2022/01/04 03:35:26;;;;;;;0.95;0.65;;;8.30;92.80;;;;;;4957489;28;20072;-72
2022/01/04 03:37:52;;;;;;;1.30;0.70;;;8.30;92.80;;;;;;4957203;28;20041;-72
2022/01/04 03:40:18;;;;;;;1.88;0.75;;;8.20;92.80;;;;;;4954670;28;20027;-73
2022/01/04 03:42:43;;;;;;;1.00;0.50;;;8.20;92.80;;;;;;4956731;28;20084;-72
2022/01/04 03:45:09;;;;;;;0.60;0.60;;;8.20;92.80;;;;;;4948353;28;20039;-73
2022/01/04 03:47:35;;;;;;;0.68;0.50;;;8.20;92.90;;;;;;4957804;28;20042;-72
2022/01/04 03:50:02;;;;;;;1.50;0.52;;;8.20;92.90;;;;;;4957436;28;20767;-73
2022/01/04 03:52:28;;;;;;;1.10;0.70;;;8.20;92.80;;;;;;4955952;28;20070;-72
2022/01/04 03:54:54;;;;;;;2.13;0.80;;;8.20;93.00;;;;;;4955190;28;20118;-72
2022/01/04 03:57:19;;;;;;;1.73;0.70;;;8.20;93.10;;;;;;4954029;28;20081;-73
2022/01/04 03:59:45;;;;;;;3.00;0.60;;;8.20;93.00;;;;;;4946709;28;20042;-72
2022/01/04 04:02:11;;;;;;;2.10;0.93;;;8.20;93.10;;;;;;4956214;28;20037;-72
2022/01/04 04:04:37;;;;;;;1.65;0.50;;;8.20;93.10;;;;;;4962204;28;20027;-71
2022/01/04 04:07:03;;;;;;;2.70;0.77;;;8.20;93.00;;;;;;4953019;28;20539;-72
2022/01/04 04:09:34;;;;;;;2.00;0.80;;;8.20;93.00;;;;;;4955776;28;20042;-72
2022/01/04 04:12:00;;;;;;;2.35;0.80;;;8.20;93.10;;;;;;4950057;28;20046;-71
2022/01/04 04:14:27;;;;;;;1.20;0.93;;;8.20;93.20;;;;;;4953178;28;20031;-72
2022/01/04 04:16:53;;;;;;;2.25;0.60;;;8.20;93.10;;;;;;4954625;28;20023;-71
2022/01/04 04:19:19;;;;;;;0.80;0.60;;;8.20;93.10;;;;;;4958506;28;20394;-71
2022/01/04 04:21:44;;;;;;;3.70;1.23;;;8.20;93.10;;;;;;4954122;28;20039;-71
2022/01/04 04:24:10;;;;;;;14.45;5.88;;;8.20;93.20;;;;;;4955597;28;20051;-71
2022/01/04 04:26:36;;;;;;;35.35;15.07;;;8.10;93.30;;;;;;4955218;28;20077;-72
2022/01/04 04:29:01;;;;;;;42.53;19.52;;;8.20;93.40;;;;;;4952922;28;20051;-71
2022/01/04 04:31:27;;;;;;;9.02;4.63;;;8.20;93.70;;;;;;4955505;28;20039;-72
2022/01/04 04:33:53;;;;;;;5.70;2.53;;;8.20;93.50;;;;;;4955211;28;20019;-73
2022/01/04 04:36:19;;;;;;;3.92;2.10;;;8.20;93.50;;;;;;4951513;28;20560;-73
2022/01/04 04:38:44;;;;;;;3.47;3.15;;;8.20;93.40;;;;;;4954428;28;20094;-71
2022/01/04 04:41:10;;;;;;;5.18;3.80;;;8.20;93.20;;;;;;4947502;28;20035;-72
2022/01/04 04:43:36;;;;;;;7.78;6.65;;;8.20;93.40;;;;;;4953486;28;20042;-71
2022/01/04 04:46:02;;;;;;;6.20;5.70;;;8.20;93.10;;;;;;4958407;28;20031;-73
2022/01/04 04:48:28;;;;;;;5.03;4.43;;;8.20;93.00;;;;;;4957164;28;20415;-73
2022/01/04 04:50:54;;;;;;;4.43;2.65;;;8.20;93.00;;;;;;4960724;28;20675;-72
2022/01/04 04:53:19;;;;;;;7.47;3.08;;;8.20;93.00;;;;;;4953937;28;20046;-72
2022/01/04 04:55:45;;;;;;;6.70;3.10;;;8.10;93.10;;;;;;4948115;28;20420;-72
2022/01/04 04:58:12;;;;;;;13.82;5.80;;;8.10;93.40;;;;;;4955862;28;20033;-73
2022/01/04 05:00:38;;;;;;;33.15;14.82;;;8.10;93.40;;;;;;4958202;28;20386;-73
2022/01/04 05:03:04;;;;;;;21.55;9.68;;;8.10;93.30;;;;;;4955511;28;20559;-73
2022/01/04 05:05:30;;;;;;;11.05;5.47;;;8.10;93.30;;;;;;4953959;28;20031;-72
2022/01/04 05:07:56;;;;;;;8.38;3.03;;;8.10;93.30;;;;;;4953172;28;20039;-73
2022/01/04 05:10:22;;;;;;;5.28;2.95;;;8.10;93.50;;;;;;4946932;28;20031;-74
2022/01/04 05:12:47;;;;;;;3.33;2.30;;;8.10;93.50;;;;;;4958228;28;20062;-72
2022/01/04 05:15:13;;;;;;;6.78;3.13;;;8.10;93.40;;;;;;4957739;28;20520;-73
2022/01/04 05:17:40;;;;;;;4.10;2.20;;;8.10;93.40;;;;;;4952955;28;20122;-72
2022/01/04 05:20:06;;;;;;;2.65;1.05;;;8.10;93.50;;;;;;4954101;28;20078;-72
2022/01/04 05:22:32;;;;;;;3.67;1.10;;;8.10;93.70;;;;;;4954641;28;20039;-72
2022/01/04 05:24:58;;;;;;;2.00;0.93;;;8.20;93.90;;;;;;4954362;28;20042;-72
2022/01/04 05:27:24;;;;;;;0.88;0.80;;;8.20;94.00;;;;;;4957570;28;20113;-72
2022/01/04 05:29:49;;;;;;;1.20;0.80;;;8.20;93.80;;;;;;4959447;28;20081;-73
2022/01/04 05:32:15;;;;;;;2.63;1.00;;;8.20;93.70;;;;;;4950533;28;20605;-73
2022/01/04 05:34:41;;;;;;;1.88;1.00;;;8.30;93.90;;;;;;4961964;28;20130;-72
2022/01/04 05:37:07;;;;;;;1.55;0.82;;;8.40;93.90;;;;;;4948445;28;20509;-73
2022/01/04 05:39:33;;;;;;;2.08;0.88;;;8.40;93.70;;;;;;4952410;28;20854;-72
2022/01/04 05:41:58;;;;;;;2.20;0.80;;;8.40;94.00;;;;;;4955576;28;20089;-73
2022/01/04 05:44:24;;;;;;;2.35;0.88;;;8.40;93.70;;;;;;4939382;28;20042;-72
2022/01/04 05:46:50;;;;;;;1.50;1.00;;;8.50;93.70;;;;;;4962384;28;20705;-73
2022/01/04 05:49:15;;;;;;;1.80;1.25;;;8.50;93.70;;;;;;4964156;28;20870;-73
2022/01/04 05:51:42;;;;;;;5.32;1.30;;;8.50;93.50;;;;;;4947803;28;20517;-72
2022/01/04 05:54:08;;;;;;;4.80;1.17;;;8.50;93.50;;;;;;4958159;28;20035;-72
2022/01/04 05:56:34;;;;;;;2.53;1.13;;;8.60;93.50;;;;;;4958592;28;20649;-72
2022/01/04 05:59:00;;;;;;;2.97;1.08;;;8.70;93.40;;;;;;4956386;28;20035;-72
2022/01/04 06:01:26;;;;;;;1.60;0.90;;;8.70;93.40;;;;;;4953741;28;20101;-72
2022/01/04 06:03:51;;;;;;;2.92;1.10;;;8.80;93.40;;;;;;4956199;28;20474;-72
2022/01/04 06:06:18;;;;;;;1.88;1.27;;;8.80;93.30;;;;;;4934292;28;20041;-72
2022/01/04 06:08:44;;;;;;;1.23;1.00;;;8.80;93.20;;;;;;4944010;28;20019;-71
2022/01/04 06:11:29;;;;;;;7.13;1.10;;;8.80;93.50;;;;;;4957315;28;20182;-72
2022/01/04 06:16:39;;;;;;;4.05;1.67;;;8.90;93.30;;;;;;4956901;28;20126;-71
2022/01/04 06:19:05;;;;;;;1.92;0.80;;;8.90;93.00;;;;;;4944021;28;20469;-72
2022/01/04 06:21:30;;;;;;;1.45;1.20;;;8.90;92.90;;;;;;4964286;28;20035;-73
2022/01/04 06:23:57;;;;;;;3.72;1.20;;;9.00;92.90;;;;;;4961742;28;20043;-72
2022/01/04 06:26:24;;;;;;;3.03;1.00;;;9.00;92.90;;;;;;4961104;28;20482;-72
2022/01/04 06:28:50;;;;;;;5.80;1.35;;;9.10;92.90;;;;;;4964702;28;20041;-72
2022/01/04 06:31:16;;;;;;;1.58;1.02;;;9.00;92.80;;;;;;4959051;28;20031;-72
2022/01/04 06:33:43;;;;;;;4.40;1.40;;;9.10;92.80;;;;;;4946058;28;20757;-72
2022/01/04 06:36:09;;;;;;;2.05;0.98;;;9.10;92.60;;;;;;4953079;28;20483;-71
2022/01/04 06:38:34;;;;;;;3.22;1.10;;;9.10;92.70;;;;;;4963700;28;20035;-72
2022/01/04 06:41:00;;;;;;;1.40;1.10;;;9.10;92.60;;;;;;4964788;28;20042;-72
2022/01/04 06:43:26;;;;;;;4.05;1.33;;;9.10;92.60;;;;;;4965671;28;20034;-72
2022/01/04 06:45:52;;;;;;;4.10;1.20;;;9.10;92.50;;;;;;4957624;28;20034;-72
2022/01/04 06:48:18;;;;;;;2.67;0.95;;;9.10;92.60;;;;;;4952746;28;20114;-72
2022/01/04 06:50:43;;;;;;;2.22;1.15;;;9.10;92.40;;;;;;4952782;28;20110;-72
2022/01/04 06:53:09;;;;;;;1.02;0.88;;;9.10;92.50;;;;;;4961034;28;20027;-72
2022/01/04 06:55:35;;;;;;;3.53;0.85;;;9.20;92.30;;;;;;4963552;28;21167;-72
2022/01/04 06:58:00;;;;;;;3.47;0.80;;;9.20;92.40;;;;;;4961386;28;20045;-72
2022/01/04 07:00:26;;;;;;;3.33;0.80;;;9.20;92.20;;;;;;4964103;28;20041;-72
2022/01/04 07:02:52;;;;;;;2.75;0.88;;;9.20;92.40;;;;;;4954257;28;20526;-72
2022/01/04 07:05:17;;;;;;;2.38;0.93;;;9.20;92.30;;;;;;4961196;28;20063;-72
2022/01/04 07:07:43;;;;;;;1.80;0.85;;;9.20;92.30;;;;;;4962911;28;20038;-72
2022/01/04 07:10:09;;;;;;;2.75;0.90;;;9.20;92.30;;;;;;4964249;28;20061;-73
2022/01/04 07:12:35;;;;;;;1.45;0.93;;;9.20;92.50;;;;;;4958436;28;20037;-72
2022/01/04 07:15:01;;;;;;;2.67;0.75;;;9.20;92.10;;;;;;4960240;28;20023;-73
2022/01/04 07:17:26;;;;;;;1.23;0.82;;;9.20;92.00;;;;;;4956461;28;20027;-72
2022/01/04 07:19:52;;;;;;;4.72;1.00;;;9.20;92.10;;;;;;4959373;28;20085;-73
2022/01/04 07:22:18;;;;;;;3.55;0.80;;;9.20;92.10;;;;;;4959775;28;20515;-72
2022/01/04 07:24:43;;;;;;;1.30;0.88;;;9.20;91.90;;;;;;4963725;28;20057;-72
2022/01/04 07:27:09;;;;;;;2.53;0.90;;;9.20;92.00;;;;;;4958101;28;20035;-72
2022/01/04 07:29:35;;;;;;;2.33;0.80;;;9.20;91.90;;;;;;4962113;28;20042;-72
2022/01/04 07:32:01;;;;;;;0.80;0.80;;;9.20;92.00;;;;;;4951135;28;20066;-72
2022/01/04 07:34:26;;;;;;;1.75;0.47;;;9.30;91.90;;;;;;4959371;28;20041;-72
2022/01/04 07:36:52;;;;;;;1.38;0.98;;;9.30;91.80;;;;;;4958281;28;20062;-73
2022/01/04 07:39:18;;;;;;;2.00;0.70;;;9.30;91.80;;;;;;4963784;28;20029;-72
2022/01/04 07:41:44;;;;;;;2.50;0.80;;;9.30;91.80;;;;;;4962274;28;20117;-73
2022/01/04 07:44:09;;;;;;;1.58;0.60;;;9.30;91.70;;;;;;4958179;28;20137;-72
2022/01/04 07:46:35;;;;;;;0.93;0.70;;;9.30;91.70;;;;;;4957557;28;20069;-72
2022/01/04 07:49:01;;;;;;;1.05;0.77;;;9.30;91.60;;;;;;4960280;28;20043;-72
2022/01/04 07:51:28;;;;;;;2.40;0.98;;;9.30;91.70;;;;;;4961723;28;20777;-72
2022/01/04 07:53:54;;;;;;;1.00;0.80;;;9.30;91.70;;;;;;4956460;28;20224;-72
2022/01/04 07:56:20;;;;;;;2.58;0.70;;;9.30;91.70;;;;;;4958079;28;20529;-72
2022/01/04 07:58:45;;;;;;;2.35;0.95;;;9.30;91.60;;;;;;4962969;28;20521;-73
2022/01/04 08:01:13;;;;;;;1.58;0.80;;;9.30;91.60;;;;;;4954844;28;20547;-72
2022/01/04 08:03:39;;;;;;;1.27;0.98;;;9.40;91.50;;;;;;4962518;28;20100;-72
2022/01/04 08:06:05;;;;;;;1.10;0.82;;;9.40;91.40;;;;;;4960682;28;20474;-72
2022/01/04 08:08:31;;;;;;;0.85;0.73;;;9.40;91.40;;;;;;4955261;28;20034;-72
2022/01/04 08:10:56;;;;;;;1.80;0.90;;;9.40;91.60;;;;;;4958171;28;20039;-72
2022/01/04 08:13:22;;;;;;;0.98;0.70;;;9.40;91.30;;;;;;4956714;28;20082;-72
2022/01/04 08:15:48;;;;;;;1.33;0.90;;;9.40;91.20;;;;;;4954863;28;20479;-72
2022/01/04 08:18:13;;;;;;;1.98;0.77;;;9.40;91.20;;;;;;4957984;28;20139;-72
2022/01/04 08:20:39;;;;;;;1.75;0.80;;;9.40;91.10;;;;;;4957839;28;20811;-72
2022/01/04 08:23:05;;;;;;;1.65;0.80;;;9.40;91.10;;;;;;4954280;28;20039;-73
2022/01/04 08:25:31;;;;;;;2.30;1.08;;;9.40;91.00;;;;;;4959224;28;20039;-72
2022/01/04 08:27:57;;;;;;;0.85;0.55;;;9.40;91.00;;;;;;4949411;28;20145;-73
2022/01/04 08:30:23;;;;;;;2.40;0.75;;;9.40;91.00;;;;;;4959398;28;20035;-73
2022/01/04 08:32:51;;;;;;;0.90;0.80;;;9.40;91.10;;;;;;4957244;28;20546;-71
2022/01/04 08:35:17;;;;;;;1.05;0.60;;;9.40;91.00;;;;;;4961600;28;20038;-71
2022/01/04 08:37:43;;;;;;;0.50;0.50;;;9.40;91.20;;;;;;4962395;28;20033;-71
2022/01/04 08:40:09;;;;;;;1.80;0.75;;;9.40;91.20;;;;;;4956292;28;20121;-71
2022/01/04 08:42:36;;;;;;;0.68;0.50;;;9.40;91.20;;;;;;4950471;28;20118;-71
2022/01/04 08:45:03;;;;;;;1.40;0.40;;;9.40;91.10;;;;;;4958052;28;20067;-71
2022/01/04 08:47:29;;;;;;;2.53;0.82;;;9.40;91.00;;;;;;4961488;28;20054;-71
2022/01/04 08:49:55;;;;;;;0.65;0.60;;;9.40;91.20;;;;;;4953689;28;20046;-71
2022/01/04 08:52:20;;;;;;;2.20;0.70;;;9.40;91.30;;;;;;4953858;28;20193;-71
2022/01/04 08:54:47;;;;;;;2.75;0.85;;;9.50;91.30;;;;;;4956527;28;20106;-73
2022/01/04 08:57:13;;;;;;;0.60;0.60;;;9.50;91.00;;;;;;4956496;28;20427;-73
2022/01/04 08:59:38;;;;;;;1.45;0.52;;;9.60;90.80;;;;;;4959025;28;20042;-72
2022/01/04 09:02:04;;;;;;;0.98;0.40;;;9.50;90.70;;;;;;4958273;28;20116;-72
2022/01/04 09:04:30;;;;;;;0.80;0.50;;;9.60;90.80;;;;;;4960776;28;20380;-72
2022/01/04 09:06:56;;;;;;;3.33;1.02;;;9.60;90.80;;;;;;4955359;28;20038;-71
2022/01/04 09:09:22;;;;;;;1.33;0.85;;;9.60;90.70;;;;;;4957273;28;20053;-71
2022/01/04 09:11:47;;;;;;;1.63;1.00;;;9.60;90.70;;;;;;4960109;28;20113;-71
2022/01/04 09:14:21;;;;;;;2.00;1.17;;;9.60;90.30;;;;;;4959866;28;20038;-70
2022/01/04 09:19:32;;;;;;;3.22;1.33;;;9.50;90.60;;;;;;4950888;28;20042;-69
2022/01/04 09:21:58;;;;;;;1.25;1.02;;;9.60;90.40;;;;;;4961492;28;20035;-74
2022/01/04 09:24:24;;;;;;;1.48;0.93;;;9.60;90.30;;;;;;4960604;28;20023;-73
2022/01/04 09:26:50;;;;;;;1.10;0.80;;;9.50;90.40;;;;;;4964701;28;20427;-65
2022/01/04 09:29:18;;;;;;;2.42;0.77;;;9.50;90.60;;;;;;4960852;28;20471;-69
2022/01/04 09:31:50;;;;;;;0.77;0.77;;;9.60;90.70;;;;;;4964070;28;20778;-69
2022/01/04 09:34:16;;;;;;;0.50;0.50;;;9.60;90.60;;;;;;4958607;28;20091;-68
2022/01/04 09:36:43;;;;;;;0.93;0.75;;;9.60;90.60;;;;;;4957452;28;20526;-66
2022/01/04 09:39:21;;;;;;;0.88;0.70;;;9.60;90.60;;;;;;4960392;28;20034;-69
2022/01/04 09:41:48;;;;;;;1.90;0.50;;;9.70;90.60;;;;;;4956658;28;20045;-68
2022/01/04 09:44:14;;;;;;;2.00;1.17;;;9.70;90.00;;;;;;4962635;28;20392;-68
2022/01/04 09:46:41;;;;;;;5.00;2.80;;;9.70;90.10;;;;;;4955040;28;20119;-68
2022/01/04 09:49:09;;;;;;;2.63;1.10;;;9.70;90.30;;;;;;4956034;28;20039;-69
2022/01/04 09:51:37;;;;;;;2.10;1.10;;;9.70;90.30;;;;;;4958211;28;20058;-68
2022/01/04 09:54:03;;;;;;;0.82;0.70;;;9.80;90.30;;;;;;4962589;28;20482;-68
2022/01/04 09:56:28;;;;;;;2.17;0.68;;;9.80;90.20;;;;;;4958638;28;20031;-68
2022/01/04 09:58:54;;;;;;;2.10;0.70;;;9.80;90.30;;;;;;4962352;28;20031;-68
2022/01/04 10:01:25;;;;;;;0.75;0.45;;;9.70;90.10;;;;;;4956690;28;20516;-68
2022/01/04 10:03:51;;;;;;;0.90;0.50;;;9.70;90.60;;;;;;4957857;28;20109;-68
2022/01/04 10:06:18;;;;;;;0.70;0.70;;;9.70;90.30;;;;;;4954932;28;20035;-68
2022/01/04 10:08:57;;;;;;;5.18;2.40;;;9.70;90.60;;;;;;4961310;28;20035;-69
2022/01/04 10:11:36;;;;;;;3.83;2.38;;;9.60;90.90;;;;;;4960281;28;20045;-68
2022/01/04 10:14:43;;;;;;;2.53;1.80;;;9.70;91.00;;;;;;4957906;28;20895;-68
2022/01/04 10:17:14;;;;;;;2.65;0.50;;;9.70;91.10;;;;;;4961362;28;20050;-68
2022/01/04 10:19:48;;;;;;;1.88;0.60;;;9.70;91.00;;;;;;4957870;28;20030;-68
2022/01/04 10:22:17;;;;;;;0.57;0.57;;;9.60;90.90;;;;;;4961043;28;20170;-68
2022/01/04 10:24:49;;;;;;;2.60;1.80;;;9.60;91.10;;;;;;4958427;28;20030;-69
2022/01/04 10:27:23;;;;;;;2.30;1.05;;;9.60;91.30;;;;;;4961650;28;20054;-71
2022/01/04 10:29:49;;;;;;;0.90;0.65;;;9.70;91.50;;;;;;4950667;28;20039;-67
2022/01/04 10:32:15;;;;;;;1.15;0.98;;;9.60;91.50;;;;;;4958036;28;20061;-68
2022/01/04 10:34:50;;;;;;;1.77;0.90;;;9.60;91.40;;;;;;4959757;28;20118;-68
2022/01/04 10:37:38;;;;;;;0.70;0.47;;;9.70;91.50;;;;;;4957311;28;20075;-67
2022/01/04 10:40:07;;;;;;;0.93;0.70;;;9.70;91.60;;;;;;4962527;28;20142;-68
2022/01/04 10:42:32;;;;;;;0.80;0.70;;;9.60;91.50;;;;;;4961219;28;20089;-68
2022/01/04 10:44:58;;;;;;;1.23;0.80;;;9.70;91.60;;;;;;4961516;28;20026;-69
2022/01/04 10:47:29;;;;;;;0.52;0.50;;;9.60;91.60;;;;;;4960495;28;20541;-69
2022/01/04 10:49:55;;;;;;;1.45;0.50;;;9.70;91.60;;;;;;4960176;28;20042;-68
2022/01/04 10:52:31;;;;;;;0.80;0.70;;;9.70;91.60;;;;;;4960820;28;20042;-67
2022/01/04 10:55:15;;;;;;;3.15;0.75;;;9.60;91.50;;;;;;4958577;28;20475;-67
2022/01/04 10:57:41;;;;;;;1.00;0.90;;;9.60;92.00;;;;;;4961620;28;20049;-73
2022/01/04 11:00:19;;;;;;;1.63;1.00;;;9.60;91.70;;;;;;4953614;28;20487;-68
2022/01/04 11:02:45;;;;;;;0.60;0.50;;;9.60;91.50;;;;;;4961415;28;20053;-68
2022/01/04 11:05:16;;;;;;;1.50;0.80;;;9.60;91.90;;;;;;4956584;28;20039;-68
2022/01/04 11:08:01;;;;;;;1.30;0.77;;;9.50;92.00;;;;;;4956056;28;20114;-68
2022/01/04 11:10:34;;;;;;;1.98;1.40;;;9.50;91.90;;;;;;4961881;28;20042;-68
2022/01/04 11:13:00;;;;;;;1.27;0.75;;;9.50;92.10;;;;;;4952267;28;20079;-68
2022/01/04 11:15:27;;;;;;;1.08;0.65;;;9.40;92.20;;;;;;4957426;28;20560;-68
2022/01/04 11:17:55;;;;;;;1.83;0.98;;;9.40;92.30;;;;;;4958746;28;20063;-68
2022/01/04 11:20:21;;;;;;;1.75;1.10;;;9.40;92.40;;;;;;4963721;28;20031;-68
2022/01/04 11:22:49;;;;;;;2.60;1.05;;;9.50;92.20;;;;;;4961824;28;20058;-68
2022/01/04 11:25:17;;;;;;;1.27;0.90;;;9.40;92.30;;;;;;4959641;28;20089;-68
2022/01/04 11:27:43;;;;;;;1.10;0.88;;;9.40;92.40;;;;;;4955249;28;20039;-68
2022/01/04 11:30:36;;;;;;;1.98;1.27;;;9.40;92.50;;;;;;4960907;28;20139;-68
2022/01/04 11:33:20;;;;;;;1.17;0.88;;;9.40;92.50;;;;;;4961244;28;20098;-68
2022/01/04 11:35:47;;;;;;;1.13;0.80;;;9.50;92.60;;;;;;4956085;28;20082;-68
2022/01/04 11:38:37;;;;;;;2.15;0.93;;;9.50;92.60;;;;;;4960709;28;20117;-68
2022/01/04 11:41:05;;;;;;;0.98;0.98;;;9.50;92.70;;;;;;4954316;28;20817;-68
2022/01/04 11:43:32;;;;;;;1.23;0.90;;;9.60;92.70;;;;;;4960143;28;20189;-68
2022/01/04 11:45:58;;;;;;;1.23;0.80;;;9.60;92.70;;;;;;4958875;28;20042;-68
2022/01/04 11:48:32;;;;;;;2.00;0.80;;;9.70;92.70;;;;;;4937546;28;20562;-68
2022/01/04 11:51:04;;;;;;;0.93;0.77;;;9.70;92.50;;;;;;4959400;28;20031;-67
2022/01/04 11:53:32;;;;;;;1.00;0.95;;;9.70;92.50;;;;;;4961020;28;20038;-68
2022/01/04 11:56:03;;;;;;;5.72;0.90;;;9.80;92.50;;;;;;4955974;28;20039;-68
2022/01/04 11:58:43;;;;;;;1.67;1.00;;;9.80;92.50;;;;;;4960194;28;20034;-67
2022/01/04 12:01:11;;;;;;;1.30;0.90;;;9.80;92.40;;;;;;4973301;28;20057;-68
2022/01/04 12:03:44;;;;;;;1.00;0.90;;;9.80;92.50;;;;;;4959374;28;20065;-68
2022/01/04 12:06:11;;;;;;;0.85;0.85;;;9.80;92.40;;;;;;4959869;28;20078;-68
2022/01/04 12:08:39;;;;;;;1.42;1.00;;;9.80;92.50;;;;;;4957955;28;20038;-68
2022/01/04 12:11:20;;;;;;;3.30;1.13;;;9.80;92.70;;;;;;4961770;28;20031;-68
2022/01/04 12:13:50;;;;;;;2.78;1.08;;;9.90;92.70;;;;;;4957167;28;20042;-68
2022/01/04 12:16:39;;;;;;;1.58;0.98;;;9.90;92.50;;;;;;4955601;28;20574;-68
2022/01/04 12:19:09;;;;;;;1.55;1.00;;;10.00;92.50;;;;;;4957138;28;20069;-68
2022/01/04 12:21:41;;;;;;;1.42;0.90;;;9.90;92.30;;;;;;4955681;28;20031;-68
2022/01/04 12:24:09;;;;;;;1.48;1.00;;;9.90;92.40;;;;;;4950411;28;20042;-67
2022/01/04 12:26:36;;;;;;;1.58;1.23;;;9.90;92.40;;;;;;4960692;28;20038;-64
2022/01/04 12:29:01;;;;;;;1.60;1.30;;;9.90;92.40;;;;;;4958619;28;20035;-67
2022/01/04 12:31:29;;;;;;;1.58;1.20;;;9.90;92.40;;;;;;4954249;28;20055;-71
2022/01/04 12:34:23;;;;;;;1.52;1.20;;;9.80;92.40;;;;;;4954031;28;20034;-66
2022/01/04 12:36:49;;;;;;;1.30;1.13;;;9.90;92.40;;;;;;4951767;28;20039;-66
2022/01/04 12:39:21;;;;;;;2.08;1.13;;;9.80;92.40;;;;;;4956131;28;20044;-68
2022/01/04 12:41:48;;;;;;;1.58;1.10;;;9.80;92.40;;;;;;4957460;28;20066;-67
2022/01/04 12:44:22;;;;;;;1.65;1.30;;;9.80;92.60;;;;;;4956024;28;20042;-66
2022/01/04 12:46:48;;;;;;;1.00;0.90;;;9.80;92.90;;;;;;4958678;28;20101;-67
2022/01/04 12:49:20;;;;;;;1.48;1.17;;;9.80;92.70;;;;;;4954582;28;20051;-68
2022/01/04 12:51:53;;;;;;;3.38;1.45;;;9.80;92.80;;;;;;4959052;28;20474;-66
2022/01/04 12:54:28;;;;;;;1.90;1.10;;;9.80;92.80;;;;;;4955599;28;20038;-67
2022/01/04 12:57:01;;;;;;;1.00;0.98;;;9.90;93.10;;;;;;4960099;28;20125;-65
2022/01/04 12:59:27;;;;;;;2.05;1.25;;;9.80;92.80;;;;;;4960877;28;20544;-67
2022/01/04 13:01:55;;;;;;;3.92;2.28;;;9.90;92.80;;;;;;4960086;28;20039;-67
2022/01/04 13:04:22;;;;;;;4.03;2.10;;;9.90;92.80;;;;;;4956622;28;20449;-67
2022/01/04 13:06:49;;;;;;;4.07;2.42;;;9.90;92.70;;;;;;4963256;28;20369;-67